KBCB

Virginia Tech / Montgomery Executive Airport

Blacksburg, Virginia, USA
METAR KBCB 241955Z AUTO 33003KT 10SM SCT030 BKN100 21/16 A3008 RMK AO2 T02140155
Observed Flight Rules
Feb-24 @ 19:55 UTC (20 minutes ago) Visual Flight Rules
Wind Visibility Clouds
330° at 3 knots 10 miles
  • Scattered at 3,000' AGL
  • Broken at 10,000' AGL
Temperatures Readings
Current 21°C / 70°F
Dewpoint 16°C / 61°F
Humidity 73%
Altimeter 30.08" Hg
Pressure 1019 hPa
Elevation 650
METAR KBCB 241955Z AUTO 33003KT 10SM SCT030 BKN100 21/16 A3008 RMK AO2 T02140155
Observed Flight Rules
Feb-24 @ 19:55 UTC
(20 minutes ago)
VFR
Wind Visibility
330° at 3 knots 10 miles
Clouds
  • Scattered at 3,000' AGL
  • Broken at 10,000' AGL
Temperature Dewpoint
21°C / 70°F 16°C / 61°F
Humidity Altimeter Pressure
73% 30.08" Hg 1019 hPa